sensor_id;sensor_type;location;lat;lon;timestamp;P1;durP1;ratioP1;P2;durP2;ratioP2
77061;SDS011;65989;51.686;5.138;2023-05-07T00:00:21;15.37;;;11.00;;
77061;SDS011;65989;51.686;5.138;2023-05-07T00:02:47;13.57;;;11.15;;
77061;SDS011;65989;51.686;5.138;2023-05-07T00:05:13;15.67;;;10.53;;
77061;SDS011;65989;51.686;5.138;2023-05-07T00:07:39;14.90;;;10.43;;
77061;SDS011;65989;51.686;5.138;2023-05-07T00:10:05;14.82;;;11.30;;
77061;SDS011;65989;51.686;5.138;2023-05-07T00:12:31;15.85;;;10.57;;
77061;SDS011;65989;51.686;5.138;2023-05-07T00:15:04;15.83;;;11.47;;
77061;SDS011;65989;51.686;5.138;2023-05-07T00:17:30;16.00;;;11.75;;
77061;SDS011;65989;51.686;5.138;2023-05-07T00:19:56;15.98;;;11.77;;
77061;SDS011;65989;51.686;5.138;2023-05-07T00:22:21;17.73;;;12.33;;
77061;SDS011;65989;51.686;5.138;2023-05-07T00:24:46;16.33;;;12.53;;
77061;SDS011;65989;51.686;5.138;2023-05-07T00:27:12;16.33;;;12.00;;
77061;SDS011;65989;51.686;5.138;2023-05-07T00:29:37;16.63;;;12.00;;
77061;SDS011;65989;51.686;5.138;2023-05-07T00:32:03;17.50;;;12.00;;
77061;SDS011;65989;51.686;5.138;2023-05-07T00:34:28;14.93;;;11.40;;
77061;SDS011;65989;51.686;5.138;2023-05-07T00:36:53;14.23;;;11.20;;
77061;SDS011;65989;51.686;5.138;2023-05-07T00:39:19;14.98;;;12.00;;
77061;SDS011;65989;51.686;5.138;2023-05-07T00:41:44;16.30;;;12.17;;
77061;SDS011;65989;51.686;5.138;2023-05-07T00:44:11;17.02;;;11.68;;
77061;SDS011;65989;51.686;5.138;2023-05-07T00:46:36;16.03;;;11.90;;
77061;SDS011;65989;51.686;5.138;2023-05-07T00:49:02;16.35;;;12.07;;
77061;SDS011;65989;51.686;5.138;2023-05-07T00:51:28;17.17;;;11.80;;
77061;SDS011;65989;51.686;5.138;2023-05-07T00:53:55;16.10;;;11.57;;
77061;SDS011;65989;51.686;5.138;2023-05-07T00:56:21;15.90;;;12.40;;
77061;SDS011;65989;51.686;5.138;2023-05-07T00:58:47;15.85;;;11.77;;
77061;SDS011;65989;51.686;5.138;2023-05-07T01:01:13;13.25;;;11.73;;
77061;SDS011;65989;51.686;5.138;2023-05-07T01:03:40;17.00;;;12.20;;
77061;SDS011;65989;51.686;5.138;2023-05-07T01:06:06;14.83;;;11.20;;
77061;SDS011;65989;51.686;5.138;2023-05-07T01:08:33;14.55;;;11.98;;
77061;SDS011;65989;51.686;5.138;2023-05-07T01:11:01;15.00;;;11.90;;
77061;SDS011;65989;51.686;5.138;2023-05-07T01:13:27;14.88;;;11.48;;
77061;SDS011;65989;51.686;5.138;2023-05-07T01:15:52;15.60;;;11.02;;
77061;SDS011;65989;51.686;5.138;2023-05-07T01:18:18;14.20;;;11.57;;
77061;SDS011;65989;51.686;5.138;2023-05-07T01:20:44;13.93;;;11.10;;
77061;SDS011;65989;51.686;5.138;2023-05-07T01:23:10;14.93;;;11.60;;
77061;SDS011;65989;51.686;5.138;2023-05-07T01:25:36;15.18;;;11.18;;
77061;SDS011;65989;51.686;5.138;2023-05-07T01:28:01;18.03;;;11.43;;
77061;SDS011;65989;51.686;5.138;2023-05-07T01:30:27;14.77;;;11.17;;
77061;SDS011;65989;51.686;5.138;2023-05-07T01:32:58;14.23;;;11.98;;
77061;SDS011;65989;51.686;5.138;2023-05-07T01:35:32;14.98;;;12.10;;
77061;SDS011;65989;51.686;5.138;2023-05-07T01:38:02;14.40;;;11.50;;
77061;SDS011;65989;51.686;5.138;2023-05-07T01:40:29;15.23;;;12.20;;
77061;SDS011;65989;51.686;5.138;2023-05-07T01:42:55;15.33;;;12.50;;
77061;SDS011;65989;51.686;5.138;2023-05-07T01:45:21;16.58;;;11.25;;
77061;SDS011;65989;51.686;5.138;2023-05-07T01:47:46;14.57;;;12.00;;
77061;SDS011;65989;51.686;5.138;2023-05-07T01:50:13;16.83;;;12.10;;
77061;SDS011;65989;51.686;5.138;2023-05-07T01:52:41;15.93;;;12.55;;
77061;SDS011;65989;51.686;5.138;2023-05-07T01:55:07;15.35;;;12.13;;
77061;SDS011;65989;51.686;5.138;2023-05-07T01:57:33;18.00;;;11.60;;
77061;SDS011;65989;51.686;5.138;2023-05-07T01:59:58;18.07;;;12.17;;
77061;SDS011;65989;51.686;5.138;2023-05-07T02:02:24;15.32;;;12.18;;
77061;SDS011;65989;51.686;5.138;2023-05-07T02:04:49;16.00;;;12.27;;
77061;SDS011;65989;51.686;5.138;2023-05-07T02:07:14;15.63;;;11.70;;
77061;SDS011;65989;51.686;5.138;2023-05-07T02:09:40;16.27;;;12.90;;
77061;SDS011;65989;51.686;5.138;2023-05-07T02:12:05;16.30;;;12.53;;
77061;SDS011;65989;51.686;5.138;2023-05-07T02:14:31;19.48;;;13.05;;
77061;SDS011;65989;51.686;5.138;2023-05-07T02:16:56;15.67;;;12.40;;
77061;SDS011;65989;51.686;5.138;2023-05-07T02:19:21;17.17;;;12.87;;
77061;SDS011;65989;51.686;5.138;2023-05-07T02:21:47;17.67;;;12.87;;
77061;SDS011;65989;51.686;5.138;2023-05-07T02:24:12;18.52;;;12.85;;
77061;SDS011;65989;51.686;5.138;2023-05-07T02:26:39;18.23;;;12.57;;
77061;SDS011;65989;51.686;5.138;2023-05-07T02:29:05;17.05;;;12.70;;
77061;SDS011;65989;51.686;5.138;2023-05-07T02:31:30;19.10;;;13.20;;
77061;SDS011;65989;51.686;5.138;2023-05-07T02:33:56;14.23;;;12.07;;
77061;SDS011;65989;51.686;5.138;2023-05-07T02:36:21;17.20;;;12.45;;
77061;SDS011;65989;51.686;5.138;2023-05-07T02:38:46;16.30;;;12.80;;
77061;SDS011;65989;51.686;5.138;2023-05-07T02:41:12;16.43;;;12.70;;
77061;SDS011;65989;51.686;5.138;2023-05-07T02:43:37;17.27;;;13.13;;
77061;SDS011;65989;51.686;5.138;2023-05-07T02:46:06;19.25;;;13.15;;
77061;SDS011;65989;51.686;5.138;2023-05-07T02:48:33;18.70;;;12.97;;
77061;SDS011;65989;51.686;5.138;2023-05-07T02:50:59;19.17;;;12.95;;
77061;SDS011;65989;51.686;5.138;2023-05-07T02:53:25;19.33;;;13.43;;
77061;SDS011;65989;51.686;5.138;2023-05-07T02:55:52;18.55;;;13.55;;
77061;SDS011;65989;51.686;5.138;2023-05-07T02:58:21;18.63;;;13.17;;
77061;SDS011;65989;51.686;5.138;2023-05-07T03:00:46;19.17;;;14.00;;
77061;SDS011;65989;51.686;5.138;2023-05-07T03:03:11;18.30;;;14.40;;
77061;SDS011;65989;51.686;5.138;2023-05-07T03:05:37;22.33;;;14.00;;
77061;SDS011;65989;51.686;5.138;2023-05-07T03:08:02;19.60;;;14.27;;
77061;SDS011;65989;51.686;5.138;2023-05-07T03:10:29;20.13;;;14.73;;
77061;SDS011;65989;51.686;5.138;2023-05-07T03:12:55;24.88;;;15.32;;
77061;SDS011;65989;51.686;5.138;2023-05-07T03:15:20;21.33;;;14.87;;
77061;SDS011;65989;51.686;5.138;2023-05-07T03:17:46;23.02;;;14.98;;
77061;SDS011;65989;51.686;5.138;2023-05-07T03:20:12;21.80;;;15.80;;
77061;SDS011;65989;51.686;5.138;2023-05-07T03:22:38;21.47;;;16.20;;
77061;SDS011;65989;51.686;5.138;2023-05-07T03:25:03;21.98;;;15.55;;
77061;SDS011;65989;51.686;5.138;2023-05-07T03:27:29;20.77;;;15.00;;
77061;SDS011;65989;51.686;5.138;2023-05-07T03:29:55;19.88;;;15.52;;
77061;SDS011;65989;51.686;5.138;2023-05-07T03:32:20;22.53;;;16.40;;
77061;SDS011;65989;51.686;5.138;2023-05-07T03:34:46;19.97;;;15.80;;
77061;SDS011;65989;51.686;5.138;2023-05-07T03:37:11;23.52;;;16.48;;
77061;SDS011;65989;51.686;5.138;2023-05-07T03:39:36;22.93;;;16.30;;
77061;SDS011;65989;51.686;5.138;2023-05-07T03:42:02;20.70;;;16.17;;
77061;SDS011;65989;51.686;5.138;2023-05-07T03:44:27;23.30;;;15.63;;
77061;SDS011;65989;51.686;5.138;2023-05-07T03:46:53;24.55;;;16.90;;
77061;SDS011;65989;51.686;5.138;2023-05-07T03:49:18;21.70;;;15.47;;
77061;SDS011;65989;51.686;5.138;2023-05-07T03:51:44;22.30;;;15.77;;
77061;SDS011;65989;51.686;5.138;2023-05-07T03:54:09;20.80;;;15.67;;
77061;SDS011;65989;51.686;5.138;2023-05-07T03:56:35;24.55;;;16.67;;
77061;SDS011;65989;51.686;5.138;2023-05-07T03:59:00;18.87;;;15.23;;
77061;SDS011;65989;51.686;5.138;2023-05-07T04:01:26;22.00;;;15.75;;
77061;SDS011;65989;51.686;5.138;2023-05-07T04:03:51;19.67;;;15.50;;
77061;SDS011;65989;51.686;5.138;2023-05-07T04:06:17;19.83;;;15.43;;
77061;SDS011;65989;51.686;5.138;2023-05-07T04:08:42;20.50;;;15.60;;
77061;SDS011;65989;51.686;5.138;2023-05-07T04:11:08;22.77;;;16.55;;
77061;SDS011;65989;51.686;5.138;2023-05-07T04:13:34;22.70;;;16.40;;
77061;SDS011;65989;51.686;5.138;2023-05-07T04:16:01;23.35;;;16.85;;
77061;SDS011;65989;51.686;5.138;2023-05-07T04:18:27;25.95;;;16.98;;
77061;SDS011;65989;51.686;5.138;2023-05-07T04:20:52;22.70;;;16.70;;
77061;SDS011;65989;51.686;5.138;2023-05-07T04:23:18;24.27;;;17.53;;
77061;SDS011;65989;51.686;5.138;2023-05-07T04:25:46;23.58;;;16.90;;
77061;SDS011;65989;51.686;5.138;2023-05-07T04:28:12;19.67;;;16.70;;
77061;SDS011;65989;51.686;5.138;2023-05-07T04:30:37;25.63;;;18.20;;
77061;SDS011;65989;51.686;5.138;2023-05-07T04:33:03;24.00;;;17.43;;
77061;SDS011;65989;51.686;5.138;2023-05-07T04:35:29;28.88;;;17.55;;
77061;SDS011;65989;51.686;5.138;2023-05-07T04:37:54;24.33;;;17.07;;
77061;SDS011;65989;51.686;5.138;2023-05-07T04:40:20;22.40;;;17.70;;
77061;SDS011;65989;51.686;5.138;2023-05-07T04:42:45;26.70;;;18.40;;
77061;SDS011;65989;51.686;5.138;2023-05-07T04:45:10;21.85;;;17.80;;
77061;SDS011;65989;51.686;5.138;2023-05-07T04:47:37;25.97;;;18.23;;
77061;SDS011;65989;51.686;5.138;2023-05-07T04:50:02;26.55;;;18.83;;
77061;SDS011;65989;51.686;5.138;2023-05-07T04:52:28;29.97;;;20.67;;
77061;SDS011;65989;51.686;5.138;2023-05-07T04:54:53;28.10;;;19.70;;
77061;SDS011;65989;51.686;5.138;2023-05-07T04:57:19;25.50;;;19.77;;
77061;SDS011;65989;51.686;5.138;2023-05-07T04:59:44;26.07;;;20.13;;
77061;SDS011;65989;51.686;5.138;2023-05-07T05:02:10;28.08;;;20.58;;
77061;SDS011;65989;51.686;5.138;2023-05-07T05:04:36;27.53;;;20.33;;
77061;SDS011;65989;51.686;5.138;2023-05-07T05:07:02;28.10;;;20.65;;
77061;SDS011;65989;51.686;5.138;2023-05-07T05:09:29;26.13;;;20.42;;
77061;SDS011;65989;51.686;5.138;2023-05-07T05:11:54;33.63;;;21.77;;
77061;SDS011;65989;51.686;5.138;2023-05-07T05:14:20;27.90;;;22.03;;
77061;SDS011;65989;51.686;5.138;2023-05-07T05:16:45;27.53;;;20.87;;
77061;SDS011;65989;51.686;5.138;2023-05-07T05:19:11;28.37;;;22.10;;
77061;SDS011;65989;51.686;5.138;2023-05-07T05:21:36;29.50;;;21.50;;
77061;SDS011;65989;51.686;5.138;2023-05-07T05:24:01;31.07;;;23.07;;
77061;SDS011;65989;51.686;5.138;2023-05-07T05:26:27;31.17;;;23.60;;
77061;SDS011;65989;51.686;5.138;2023-05-07T05:28:52;31.63;;;22.67;;
77061;SDS011;65989;51.686;5.138;2023-05-07T05:31:18;32.30;;;23.00;;
77061;SDS011;65989;51.686;5.138;2023-05-07T05:33:43;31.13;;;22.87;;
77061;SDS011;65989;51.686;5.138;2023-05-07T05:36:09;33.38;;;22.70;;
77061;SDS011;65989;51.686;5.138;2023-05-07T05:38:35;29.90;;;22.40;;
77061;SDS011;65989;51.686;5.138;2023-05-07T05:41:01;29.73;;;21.10;;
77061;SDS011;65989;51.686;5.138;2023-05-07T05:43:26;29.63;;;22.52;;
77061;SDS011;65989;51.686;5.138;2023-05-07T05:45:52;29.57;;;21.73;;
77061;SDS011;65989;51.686;5.138;2023-05-07T05:48:17;32.23;;;22.67;;
77061;SDS011;65989;51.686;5.138;2023-05-07T05:50:43;30.50;;;23.03;;
77061;SDS011;65989;51.686;5.138;2023-05-07T05:53:08;30.67;;;23.00;;
77061;SDS011;65989;51.686;5.138;2023-05-07T05:55:33;33.47;;;22.40;;
77061;SDS011;65989;51.686;5.138;2023-05-07T05:58:00;33.27;;;22.30;;
77061;SDS011;65989;51.686;5.138;2023-05-07T06:00:25;29.38;;;22.50;;
77061;SDS011;65989;51.686;5.138;2023-05-07T06:02:51;27.88;;;22.15;;
77061;SDS011;65989;51.686;5.138;2023-05-07T06:05:17;30.90;;;23.00;;
77061;SDS011;65989;51.686;5.138;2023-05-07T06:07:42;31.23;;;23.43;;
77061;SDS011;65989;51.686;5.138;2023-05-07T06:10:07;30.77;;;22.97;;
77061;SDS011;65989;51.686;5.138;2023-05-07T06:12:33;31.30;;;23.67;;
77061;SDS011;65989;51.686;5.138;2023-05-07T06:14:58;31.87;;;23.67;;
77061;SDS011;65989;51.686;5.138;2023-05-07T06:17:24;30.97;;;23.93;;
77061;SDS011;65989;51.686;5.138;2023-05-07T06:19:49;34.60;;;23.93;;
77061;SDS011;65989;51.686;5.138;2023-05-07T06:22:14;33.15;;;24.58;;
77061;SDS011;65989;51.686;5.138;2023-05-07T06:24:40;29.33;;;22.97;;
77061;SDS011;65989;51.686;5.138;2023-05-07T06:27:05;33.50;;;24.47;;
77061;SDS011;65989;51.686;5.138;2023-05-07T06:29:31;32.57;;;24.40;;
77061;SDS011;65989;51.686;5.138;2023-05-07T06:32:08;31.35;;;24.65;;
77061;SDS011;65989;51.686;5.138;2023-05-07T06:34:38;33.88;;;24.40;;
77061;SDS011;65989;51.686;5.138;2023-05-07T06:37:05;34.70;;;25.92;;
77061;SDS011;65989;51.686;5.138;2023-05-07T06:39:31;34.73;;;25.80;;
77061;SDS011;65989;51.686;5.138;2023-05-07T06:41:56;31.42;;;25.25;;
77061;SDS011;65989;51.686;5.138;2023-05-07T06:44:22;37.67;;;26.07;;
77061;SDS011;65989;51.686;5.138;2023-05-07T06:46:47;37.60;;;24.93;;
77061;SDS011;65989;51.686;5.138;2023-05-07T06:49:13;30.17;;;24.80;;
77061;SDS011;65989;51.686;5.138;2023-05-07T06:51:39;34.33;;;26.38;;
77061;SDS011;65989;51.686;5.138;2023-05-07T06:54:04;32.80;;;25.00;;
77061;SDS011;65989;51.686;5.138;2023-05-07T06:56:30;34.73;;;25.63;;
77061;SDS011;65989;51.686;5.138;2023-05-07T06:58:56;33.50;;;25.48;;
77061;SDS011;65989;51.686;5.138;2023-05-07T07:01:22;34.40;;;25.27;;
77061;SDS011;65989;51.686;5.138;2023-05-07T07:03:47;32.23;;;25.33;;
77061;SDS011;65989;51.686;5.138;2023-05-07T07:06:13;33.80;;;25.92;;
77061;SDS011;65989;51.686;5.138;2023-05-07T07:08:38;30.83;;;25.53;;
77061;SDS011;65989;51.686;5.138;2023-05-07T07:11:04;32.63;;;26.40;;
77061;SDS011;65989;51.686;5.138;2023-05-07T07:13:30;32.15;;;24.77;;
77061;SDS011;65989;51.686;5.138;2023-05-07T07:15:55;38.27;;;26.07;;
77061;SDS011;65989;51.686;5.138;2023-05-07T07:18:21;32.10;;;24.88;;
77061;SDS011;65989;51.686;5.138;2023-05-07T07:20:46;29.13;;;24.03;;
77061;SDS011;65989;51.686;5.138;2023-05-07T07:23:12;30.07;;;24.27;;
77061;SDS011;65989;51.686;5.138;2023-05-07T07:25:37;31.13;;;25.85;;
77061;SDS011;65989;51.686;5.138;2023-05-07T07:28:03;29.23;;;25.17;;
77061;SDS011;65989;51.686;5.138;2023-05-07T07:30:28;32.10;;;25.53;;
77061;SDS011;65989;51.686;5.138;2023-05-07T07:32:54;29.80;;;24.57;;
77061;SDS011;65989;51.686;5.138;2023-05-07T07:35:21;30.25;;;24.90;;
77061;SDS011;65989;51.686;5.138;2023-05-07T07:37:47;33.13;;;24.23;;
77061;SDS011;65989;51.686;5.138;2023-05-07T07:40:14;28.95;;;23.65;;
77061;SDS011;65989;51.686;5.138;2023-05-07T07:42:40;28.53;;;23.30;;
77061;SDS011;65989;51.686;5.138;2023-05-07T07:45:05;30.90;;;22.55;;
77061;SDS011;65989;51.686;5.138;2023-05-07T07:47:31;31.93;;;23.87;;
77061;SDS011;65989;51.686;5.138;2023-05-07T07:49:57;27.08;;;22.35;;
77061;SDS011;65989;51.686;5.138;2023-05-07T07:52:22;25.50;;;20.20;;
77061;SDS011;65989;51.686;5.138;2023-05-07T07:54:47;28.90;;;21.70;;
77061;SDS011;65989;51.686;5.138;2023-05-07T07:57:13;27.60;;;22.40;;
77061;SDS011;65989;51.686;5.138;2023-05-07T07:59:38;26.73;;;21.73;;
77061;SDS011;65989;51.686;5.138;2023-05-07T08:02:04;27.43;;;20.23;;
77061;SDS011;65989;51.686;5.138;2023-05-07T08:04:30;26.13;;;20.80;;
77061;SDS011;65989;51.686;5.138;2023-05-07T08:06:58;26.67;;;21.20;;
77061;SDS011;65989;51.686;5.138;2023-05-07T08:09:23;29.57;;;21.40;;
77061;SDS011;65989;51.686;5.138;2023-05-07T08:11:48;26.10;;;20.83;;
77061;SDS011;65989;51.686;5.138;2023-05-07T08:14:14;26.10;;;19.98;;
77061;SDS011;65989;51.686;5.138;2023-05-07T08:16:40;24.70;;;19.17;;
77061;SDS011;65989;51.686;5.138;2023-05-07T08:19:06;21.73;;;18.87;;
77061;SDS011;65989;51.686;5.138;2023-05-07T08:21:31;21.07;;;18.50;;
77061;SDS011;65989;51.686;5.138;2023-05-07T08:23:57;22.10;;;17.53;;
77061;SDS011;65989;51.686;5.138;2023-05-07T08:26:22;22.47;;;18.20;;
77061;SDS011;65989;51.686;5.138;2023-05-07T08:28:48;25.07;;;19.13;;
77061;SDS011;65989;51.686;5.138;2023-05-07T08:31:13;25.07;;;18.43;;
77061;SDS011;65989;51.686;5.138;2023-05-07T08:33:38;23.37;;;19.47;;
77061;SDS011;65989;51.686;5.138;2023-05-07T08:36:04;24.02;;;18.70;;
77061;SDS011;65989;51.686;5.138;2023-05-07T08:38:30;23.77;;;18.63;;
77061;SDS011;65989;51.686;5.138;2023-05-07T08:40:56;23.05;;;18.80;;
77061;SDS011;65989;51.686;5.138;2023-05-07T08:43:21;23.47;;;18.63;;
77061;SDS011;65989;51.686;5.138;2023-05-07T08:45:53;21.85;;;16.88;;
77061;SDS011;65989;51.686;5.138;2023-05-07T08:48:23;21.73;;;18.33;;
77061;SDS011;65989;51.686;5.138;2023-05-07T08:50:51;22.05;;;17.58;;
77061;SDS011;65989;51.686;5.138;2023-05-07T08:53:16;20.93;;;16.80;;
77061;SDS011;65989;51.686;5.138;2023-05-07T08:55:42;22.27;;;16.60;;
77061;SDS011;65989;51.686;5.138;2023-05-07T08:58:08;20.30;;;16.57;;
77061;SDS011;65989;51.686;5.138;2023-05-07T09:00:33;22.37;;;17.13;;
77061;SDS011;65989;51.686;5.138;2023-05-07T09:03:01;21.15;;;17.00;;
77061;SDS011;65989;51.686;5.138;2023-05-07T09:05:26;23.10;;;17.20;;
77061;SDS011;65989;51.686;5.138;2023-05-07T09:07:52;21.38;;;17.23;;
77061;SDS011;65989;51.686;5.138;2023-05-07T09:10:17;21.43;;;16.70;;
77061;SDS011;65989;51.686;5.138;2023-05-07T09:12:43;21.63;;;17.47;;
77061;SDS011;65989;51.686;5.138;2023-05-07T09:15:08;21.92;;;16.27;;
77061;SDS011;65989;51.686;5.138;2023-05-07T09:17:34;21.00;;;16.47;;
77061;SDS011;65989;51.686;5.138;2023-05-07T09:20:03;21.77;;;17.53;;
77061;SDS011;65989;51.686;5.138;2023-05-07T09:22:33;19.30;;;16.60;;
77061;SDS011;65989;51.686;5.138;2023-05-07T09:24:58;23.58;;;17.85;;
77061;SDS011;65989;51.686;5.138;2023-05-07T09:27:24;21.23;;;16.77;;
77061;SDS011;65989;51.686;5.138;2023-05-07T09:29:56;20.50;;;16.67;;
77061;SDS011;65989;51.686;5.138;2023-05-07T09:32:24;19.00;;;15.90;;
77061;SDS011;65989;51.686;5.138;2023-05-07T09:34:50;22.67;;;17.33;;
77061;SDS011;65989;51.686;5.138;2023-05-07T09:37:15;19.53;;;17.00;;
77061;SDS011;65989;51.686;5.138;2023-05-07T09:39:44;23.83;;;16.52;;
77061;SDS011;65989;51.686;5.138;2023-05-07T09:42:14;18.00;;;15.00;;
77061;SDS011;65989;51.686;5.138;2023-05-07T09:44:40;18.67;;;14.80;;
77061;SDS011;65989;51.686;5.138;2023-05-07T09:47:06;16.70;;;13.57;;
77061;SDS011;65989;51.686;5.138;2023-05-07T09:49:36;21.20;;;15.10;;
77061;SDS011;65989;51.686;5.138;2023-05-07T09:52:05;19.73;;;14.77;;
77061;SDS011;65989;51.686;5.138;2023-05-07T09:54:33;15.77;;;12.50;;
77061;SDS011;65989;51.686;5.138;2023-05-07T09:57:03;20.70;;;12.55;;
77061;SDS011;65989;51.686;5.138;2023-05-07T09:59:31;17.30;;;13.23;;
77061;SDS011;65989;51.686;5.138;2023-05-07T10:01:58;16.65;;;13.10;;
77061;SDS011;65989;51.686;5.138;2023-05-07T10:04:25;15.13;;;12.33;;
77061;SDS011;65989;51.686;5.138;2023-05-07T10:06:51;17.55;;;12.20;;
77061;SDS011;65989;51.686;5.138;2023-05-07T10:09:17;17.00;;;12.48;;
77061;SDS011;65989;51.686;5.138;2023-05-07T10:11:43;18.15;;;12.95;;
77061;SDS011;65989;51.686;5.138;2023-05-07T10:14:09;20.57;;;13.33;;
77061;SDS011;65989;51.686;5.138;2023-05-07T10:16:35;16.15;;;13.52;;
77061;SDS011;65989;51.686;5.138;2023-05-07T10:19:08;16.70;;;13.70;;
77061;SDS011;65989;51.686;5.138;2023-05-07T10:21:37;16.02;;;13.75;;
77061;SDS011;65989;51.686;5.138;2023-05-07T10:24:05;18.58;;;14.02;;
77061;SDS011;65989;51.686;5.138;2023-05-07T10:26:38;17.03;;;14.10;;
77061;SDS011;65989;51.686;5.138;2023-05-07T10:29:11;16.77;;;14.35;;
77061;SDS011;65989;51.686;5.138;2023-05-07T10:34:33;17.60;;;14.25;;
77061;SDS011;65989;51.686;5.138;2023-05-07T10:37:01;16.00;;;13.15;;
77061;SDS011;65989;51.686;5.138;2023-05-07T10:39:28;18.33;;;13.00;;
77061;SDS011;65989;51.686;5.138;2023-05-07T10:41:55;15.27;;;12.45;;
77061;SDS011;65989;51.686;5.138;2023-05-07T10:44:27;16.92;;;13.27;;
77061;SDS011;65989;51.686;5.138;2023-05-07T10:49:34;16.00;;;11.18;;
77061;SDS011;65989;51.686;5.138;2023-05-07T10:52:21;13.82;;;11.40;;
77061;SDS011;65989;51.686;5.138;2023-05-07T10:55:18;14.75;;;12.10;;
77061;SDS011;65989;51.686;5.138;2023-05-07T10:57:40;16.40;;;12.55;;
77061;SDS011;65989;51.686;5.138;2023-05-07T11:00:50;14.07;;;11.70;;
77061;SDS011;65989;51.686;5.138;2023-05-07T11:05:26;16.27;;;11.87;;
77061;SDS011;65989;51.686;5.138;2023-05-07T11:07:56;15.75;;;12.10;;
77061;SDS011;65989;51.686;5.138;2023-05-07T11:10:23;14.82;;;11.55;;
77061;SDS011;65989;51.686;5.138;2023-05-07T11:13:15;15.40;;;11.77;;
77061;SDS011;65989;51.686;5.138;2023-05-07T11:15:44;15.93;;;11.32;;
77061;SDS011;65989;51.686;5.138;2023-05-07T11:18:12;15.07;;;10.23;;
77061;SDS011;65989;51.686;5.138;2023-05-07T11:26:03;14.35;;;10.55;;
77061;SDS011;65989;51.686;5.138;2023-05-07T11:28:30;14.23;;;10.20;;
77061;SDS011;65989;51.686;5.138;2023-05-07T11:30:56;14.17;;;9.67;;
77061;SDS011;65989;51.686;5.138;2023-05-07T11:33:22;14.48;;;10.82;;
77061;SDS011;65989;51.686;5.138;2023-05-07T11:35:50;13.00;;;9.50;;
77061;SDS011;65989;51.686;5.138;2023-05-07T11:38:17;15.02;;;9.02;;
77061;SDS011;65989;51.686;5.138;2023-05-07T11:40:50;14.98;;;9.65;;
77061;SDS011;65989;51.686;5.138;2023-05-07T11:43:16;13.87;;;10.47;;
77061;SDS011;65989;51.686;5.138;2023-05-07T11:45:42;15.25;;;10.20;;
77061;SDS011;65989;51.686;5.138;2023-05-07T11:48:08;14.53;;;10.63;;
77061;SDS011;65989;51.686;5.138;2023-05-07T11:50:33;16.55;;;10.68;;
77061;SDS011;65989;51.686;5.138;2023-05-07T11:52:58;13.97;;;10.30;;
77061;SDS011;65989;51.686;5.138;2023-05-07T11:55:24;16.63;;;9.30;;
77061;SDS011;65989;51.686;5.138;2023-05-07T11:57:51;11.80;;;9.15;;
77061;SDS011;65989;51.686;5.138;2023-05-07T12:00:19;12.77;;;8.68;;
77061;SDS011;65989;51.686;5.138;2023-05-07T12:02:45;15.43;;;8.73;;
77061;SDS011;65989;51.686;5.138;2023-05-07T12:05:10;13.23;;;8.85;;
77061;SDS011;65989;51.686;5.138;2023-05-07T12:07:36;11.77;;;7.70;;
77061;SDS011;65989;51.686;5.138;2023-05-07T12:10:07;11.55;;;8.13;;
77061;SDS011;65989;51.686;5.138;2023-05-07T12:12:45;13.33;;;8.60;;
77061;SDS011;65989;51.686;5.138;2023-05-07T12:15:13;12.43;;;7.43;;
77061;SDS011;65989;51.686;5.138;2023-05-07T12:17:41;11.32;;;6.68;;
77061;SDS011;65989;51.686;5.138;2023-05-07T12:20:07;8.80;;;4.87;;
77061;SDS011;65989;51.686;5.138;2023-05-07T12:22:33;10.07;;;4.60;;
77061;SDS011;65989;51.686;5.138;2023-05-07T12:24:58;7.72;;;3.75;;
77061;SDS011;65989;51.686;5.138;2023-05-07T12:27:24;7.53;;;3.70;;
77061;SDS011;65989;51.686;5.138;2023-05-07T12:29:51;8.38;;;3.90;;
77061;SDS011;65989;51.686;5.138;2023-05-07T12:32:17;10.40;;;3.67;;
77061;SDS011;65989;51.686;5.138;2023-05-07T12:34:43;10.05;;;4.68;;
77061;SDS011;65989;51.686;5.138;2023-05-07T12:37:09;8.65;;;4.85;;
77061;SDS011;65989;51.686;5.138;2023-05-07T12:39:35;10.00;;;5.53;;
77061;SDS011;65989;51.686;5.138;2023-05-07T12:42:01;7.87;;;4.40;;
77061;SDS011;65989;51.686;5.138;2023-05-07T12:44:30;9.27;;;4.63;;
77061;SDS011;65989;51.686;5.138;2023-05-07T12:46:57;9.38;;;4.32;;
77061;SDS011;65989;51.686;5.138;2023-05-07T12:49:23;9.63;;;3.28;;
77061;SDS011;65989;51.686;5.138;2023-05-07T12:51:50;9.23;;;5.63;;
77061;SDS011;65989;51.686;5.138;2023-05-07T12:54:28;12.07;;;5.93;;
77061;SDS011;65989;51.686;5.138;2023-05-07T12:57:04;11.73;;;5.50;;
77061;SDS011;65989;51.686;5.138;2023-05-07T12:59:35;10.70;;;5.13;;
77061;SDS011;65989;51.686;5.138;2023-05-07T13:02:03;8.20;;;3.28;;
77061;SDS011;65989;51.686;5.138;2023-05-07T13:04:29;9.73;;;3.80;;
77061;SDS011;65989;51.686;5.138;2023-05-07T13:06:55;6.80;;;3.00;;
77061;SDS011;65989;51.686;5.138;2023-05-07T13:09:20;8.23;;;2.10;;
77061;SDS011;65989;51.686;5.138;2023-05-07T13:11:46;6.33;;;2.13;;
77061;SDS011;65989;51.686;5.138;2023-05-07T13:14:11;8.95;;;2.22;;
77061;SDS011;65989;51.686;5.138;2023-05-07T13:16:37;10.03;;;2.10;;
77061;SDS011;65989;51.686;5.138;2023-05-07T13:19:02;8.37;;;2.60;;
77061;SDS011;65989;51.686;5.138;2023-05-07T13:21:28;9.50;;;2.90;;
77061;SDS011;65989;51.686;5.138;2023-05-07T13:23:53;8.60;;;2.87;;
77061;SDS011;65989;51.686;5.138;2023-05-07T13:26:18;9.00;;;2.50;;
77061;SDS011;65989;51.686;5.138;2023-05-07T13:28:44;10.17;;;3.80;;
77061;SDS011;65989;51.686;5.138;2023-05-07T13:31:09;7.97;;;3.63;;
77061;SDS011;65989;51.686;5.138;2023-05-07T13:33:35;8.13;;;3.57;;
77061;SDS011;65989;51.686;5.138;2023-05-07T13:36:01;8.48;;;4.15;;
77061;SDS011;65989;51.686;5.138;2023-05-07T13:38:28;7.57;;;4.40;;
77061;SDS011;65989;51.686;5.138;2023-05-07T13:40:54;8.37;;;4.03;;
77061;SDS011;65989;51.686;5.138;2023-05-07T13:43:20;10.48;;;4.43;;
77061;SDS011;65989;51.686;5.138;2023-05-07T13:45:45;10.23;;;5.30;;
77061;SDS011;65989;51.686;5.138;2023-05-07T13:48:11;9.80;;;5.60;;
77061;SDS011;65989;51.686;5.138;2023-05-07T13:50:36;12.50;;;5.73;;
77061;SDS011;65989;51.686;5.138;2023-05-07T13:53:01;11.10;;;5.75;;
77061;SDS011;65989;51.686;5.138;2023-05-07T13:55:28;12.87;;;6.53;;
77061;SDS011;65989;51.686;5.138;2023-05-07T13:57:58;9.70;;;5.22;;
77061;SDS011;65989;51.686;5.138;2023-05-07T14:00:24;11.85;;;6.03;;
77061;SDS011;65989;51.686;5.138;2023-05-07T14:02:51;9.13;;;5.87;;
77061;SDS011;65989;51.686;5.138;2023-05-07T14:05:17;12.25;;;5.90;;
77061;SDS011;65989;51.686;5.138;2023-05-07T14:07:45;10.25;;;5.80;;
77061;SDS011;65989;51.686;5.138;2023-05-07T14:10:12;9.60;;;5.80;;
77061;SDS011;65989;51.686;5.138;2023-05-07T14:12:38;11.40;;;7.47;;
77061;SDS011;65989;51.686;5.138;2023-05-07T14:15:03;15.20;;;8.93;;
77061;SDS011;65989;51.686;5.138;2023-05-07T14:17:29;13.80;;;8.77;;
77061;SDS011;65989;51.686;5.138;2023-05-07T14:19:55;9.77;;;7.07;;
77061;SDS011;65989;51.686;5.138;2023-05-07T14:22:23;13.30;;;7.27;;
77061;SDS011;65989;51.686;5.138;2023-05-07T14:24:49;12.23;;;7.25;;
77061;SDS011;65989;51.686;5.138;2023-05-07T14:27:15;15.50;;;7.85;;
77061;SDS011;65989;51.686;5.138;2023-05-07T14:29:41;13.87;;;7.80;;
77061;SDS011;65989;51.686;5.138;2023-05-07T14:32:07;12.23;;;7.80;;
77061;SDS011;65989;51.686;5.138;2023-05-07T14:34:33;13.50;;;8.18;;